Time;durP1;ratioP1;P1;durP2;ratioP2;P2;SDS_P1;SDS_P2;PMS_P1;PMS_P2;Temp;Humidity;BMP_temperature;BMP_pressure;BME280_temperature;BME280_humidity;BME280_pressure;Samples;Min_cycle;Max_cycle;Signal;HPM_P1;HPM_P2
2021/04/20 00:01:47;;;;;;;11.90;10.40;;;;;;;;;;5050142;28;20517;-64
2021/04/20 00:04:14;;;;;;;13.20;11.23;;;;;;;;;;5035559;28;21022;-63
2021/04/20 00:06:41;;;;;;;14.70;10.70;;;;;;;;;;5054494;28;20452;-65
2021/04/20 00:09:08;;;;;;;14.50;11.43;;;;;;;;;;5050418;28;20447;-63
2021/04/20 00:11:35;;;;;;;13.27;11.87;;;;;;;;;;5054973;28;20451;-63
2021/04/20 00:14:02;;;;;;;13.00;11.67;;;;;;;;;;5054487;28;20448;-64
2021/04/20 00:16:28;;;;;;;12.70;11.57;;;;;;;;;;5055310;28;20455;-65
2021/04/20 00:18:55;;;;;;;13.47;12.20;;;;;;;;;;5048800;28;20491;-64
2021/04/20 00:21:22;;;;;;;13.80;11.67;;;;;;;;;;5046791;28;20454;-64
2021/04/20 00:23:49;;;;;;;12.73;11.20;;;;;;;;;;5050653;28;20467;-66
2021/04/20 00:26:15;;;;;;;14.47;13.03;;;;;;;;;;5055088;28;20508;-64
2021/04/20 00:28:42;;;;;;;14.23;12.13;;;;;;;;;;5045759;28;20468;-66
2021/04/20 00:31:09;;;;;;;15.23;13.07;;;;;;;;;;5041795;28;20817;-63
2021/04/20 00:33:35;;;;;;;13.70;12.30;;;;;;;;;;5054678;28;20463;-64
2021/04/20 00:36:02;;;;;;;13.87;12.53;;;;;;;;;;5054104;28;20451;-63
2021/04/20 00:38:29;;;;;;;14.53;13.07;;;;;;;;;;5054389;28;20486;-65
2021/04/20 00:41:02;;;;;;;16.73;13.63;;;;;;;;;;5054376;28;20893;-64
2021/04/20 00:43:33;;;;;;;15.00;13.37;;;;;;;;;;5054498;28;20467;-63
2021/04/20 00:45:59;;;;;;;16.17;14.30;;;;;;;;;;5049028;28;20521;-64
2021/04/20 00:48:26;;;;;;;16.20;14.60;;;;;;;;;;5041943;28;20452;-64
2021/04/20 00:50:52;;;;;;;15.07;13.57;;;;;;;;;;5050534;28;20456;-65
2021/04/20 00:53:19;;;;;;;14.17;12.77;;;;;;;;;;5040133;28;20477;-65
2021/04/20 00:55:46;;;;;;;16.83;13.60;;;;;;;;;;5054162;28;20447;-64
2021/04/20 00:58:13;;;;;;;18.37;14.77;;;;;;;;;;5054290;28;20834;-64
2021/04/20 01:00:40;;;;;;;15.60;13.40;;;;;;;;;;5054087;28;20444;-64
2021/04/20 01:03:06;;;;;;;15.10;13.60;;;;;;;;;;5054050;28;20467;-64
2021/04/20 01:05:34;;;;;;;18.77;14.67;;;;;;;;;;5053805;28;20447;-64
2021/04/20 01:08:01;;;;;;;18.67;14.40;;;;;;;;;;5054616;28;20506;-64
2021/04/20 01:10:28;;;;;;;16.07;13.80;;;;;;;;;;5048805;28;20511;-63
2021/04/20 01:12:56;;;;;;;15.27;13.63;;;;;;;;;;5034967;28;20541;-63
2021/04/20 01:15:22;;;;;;;16.33;13.63;;;;;;;;;;5048681;28;20966;-64
2021/04/20 01:17:49;;;;;;;17.33;14.50;;;;;;;;;;5034237;28;20538;-64
2021/04/20 01:20:16;;;;;;;15.87;13.60;;;;;;;;;;5037705;28;20931;-64
2021/04/20 01:22:44;;;;;;;16.37;14.30;;;;;;;;;;5054079;28;20517;-64
2021/04/20 01:25:13;;;;;;;16.30;14.60;;;;;;;;;;5034466;28;20453;-67
2021/04/20 01:27:40;;;;;;;14.70;13.20;;;;;;;;;;5033653;28;20448;-64
2021/04/20 01:30:09;;;;;;;17.23;14.77;;;;;;;;;;5053195;28;20474;-64
2021/04/20 01:32:37;;;;;;;17.53;15.07;;;;;;;;;;5053632;28;20463;-64
2021/04/20 01:35:04;;;;;;;19.53;14.77;;;;;;;;;;5053599;28;20452;-63
2021/04/20 01:37:31;;;;;;;16.20;13.90;;;;;;;;;;5051736;28;20445;-63
2021/04/20 01:39:57;;;;;;;16.10;14.50;;;;;;;;;;5053035;28;20456;-64
2021/04/20 01:42:25;;;;;;;15.60;13.20;;;;;;;;;;5053113;28;20464;-64
2021/04/20 01:44:52;;;;;;;15.57;14.00;;;;;;;;;;5053814;28;20451;-64
2021/04/20 01:47:18;;;;;;;14.53;13.03;;;;;;;;;;5052701;28;20456;-65
2021/04/20 01:49:45;;;;;;;15.23;13.60;;;;;;;;;;5053627;28;20448;-63
2021/04/20 01:52:12;;;;;;;14.87;13.27;;;;;;;;;;5053364;28;20467;-63
2021/04/20 01:54:40;;;;;;;16.77;15.00;;;;;;;;;;5046707;28;20464;-63
2021/04/20 01:57:07;;;;;;;14.80;13.43;;;;;;;;;;5033484;28;20445;-64
2021/04/20 01:59:36;;;;;;;14.73;13.20;;;;;;;;;;5049391;28;20483;-67
2021/04/20 02:02:02;;;;;;;16.90;15.17;;;;;;;;;;5053338;28;20464;-65
2021/04/20 02:04:29;;;;;;;14.90;13.40;;;;;;;;;;5036096;28;20453;-64
2021/04/20 02:06:56;;;;;;;17.13;15.43;;;;;;;;;;5033428;28;20456;-64
2021/04/20 02:09:22;;;;;;;18.13;14.53;;;;;;;;;;5048322;28;20454;-63
2021/04/20 02:11:49;;;;;;;24.40;14.97;;;;;;;;;;5053251;28;20471;-65
2021/04/20 02:14:15;;;;;;;21.17;14.97;;;;;;;;;;5038986;28;20972;-64
2021/04/20 02:16:43;;;;;;;14.77;13.43;;;;;;;;;;5038361;28;20459;-63
2021/04/20 02:19:12;;;;;;;16.13;13.30;;;;;;;;;;5052264;28;20480;-63
2021/04/20 02:21:39;;;;;;;17.03;14.40;;;;;;;;;;5052416;28;20463;-65
2021/04/20 02:24:07;;;;;;;14.83;13.37;;;;;;;;;;5052318;28;20444;-64
2021/04/20 02:26:34;;;;;;;16.07;13.03;;;;;;;;;;5052050;28;20447;-64
2021/04/20 02:29:02;;;;;;;16.83;13.90;;;;;;;;;;5052172;28;20506;-65
2021/04/20 02:31:28;;;;;;;18.70;15.40;;;;;;;;;;5052268;28;20931;-63
2021/04/20 02:33:56;;;;;;;16.93;15.00;;;;;;;;;;5052623;28;20452;-64
2021/04/20 02:36:23;;;;;;;16.80;14.47;;;;;;;;;;5052172;28;20443;-63
2021/04/20 02:38:49;;;;;;;19.63;14.43;;;;;;;;;;5051980;28;20479;-64
2021/04/20 02:41:17;;;;;;;18.27;14.73;;;;;;;;;;5052512;28;20452;-64
2021/04/20 02:43:44;;;;;;;18.37;15.60;;;;;;;;;;5051061;28;21018;-63
2021/04/20 02:46:11;;;;;;;21.33;14.97;;;;;;;;;;5050179;28;20448;-63
2021/04/20 02:48:37;;;;;;;15.67;13.90;;;;;;;;;;5040986;28;20459;-66
2021/04/20 02:51:10;;;;;;;16.37;13.67;;;;;;;;;;5051894;28;20458;-64
2021/04/20 02:53:36;;;;;;;15.57;14.07;;;;;;;;;;5040493;28;20830;-63
2021/04/20 02:56:03;;;;;;;16.53;13.23;;;;;;;;;;5051933;28;20452;-64
2021/04/20 02:58:30;;;;;;;14.33;12.80;;;;;;;;;;5051902;28;20494;-64
2021/04/20 03:01:01;;;;;;;17.30;14.90;;;;;;;;;;5052333;28;20478;-64
2021/04/20 03:03:28;;;;;;;16.00;14.40;;;;;;;;;;5044852;28;21069;-63
2021/04/20 03:05:55;;;;;;;16.83;14.87;;;;;;;;;;5041247;28;20456;-64
2021/04/20 03:08:23;;;;;;;16.20;13.37;;;;;;;;;;5051640;28;20454;-64
2021/04/20 03:10:50;;;;;;;15.83;14.13;;;;;;;;;;5051857;28;20463;-63
2021/04/20 03:13:17;;;;;;;16.53;13.80;;;;;;;;;;5043906;28;20847;-64
2021/04/20 03:15:44;;;;;;;16.27;13.53;;;;;;;;;;5038085;28;20530;-65
2021/04/20 03:18:11;;;;;;;17.07;14.40;;;;;;;;;;5051692;28;20496;-63
2021/04/20 03:20:37;;;;;;;17.33;14.13;;;;;;;;;;5051873;28;20445;-63
2021/04/20 03:23:04;;;;;;;15.63;12.53;;;;;;;;;;5051493;28;20471;-64
2021/04/20 03:25:33;;;;;;;14.53;13.03;;;;;;;;;;5050772;28;20455;-63
2021/04/20 03:28:00;;;;;;;14.27;12.77;;;;;;;;;;5048059;28;20449;-63
2021/04/20 03:30:28;;;;;;;15.60;12.63;;;;;;;;;;5044434;28;20448;-63
2021/04/20 03:32:58;;;;;;;15.00;12.50;;;;;;;;;;5051292;28;20487;-65
2021/04/20 03:35:28;;;;;;;15.50;13.27;;;;;;;;;;5051451;28;20436;-64
2021/04/20 03:37:57;;;;;;;13.73;12.33;;;;;;;;;;5048103;28;20456;-63
2021/04/20 03:40:25;;;;;;;16.33;13.87;;;;;;;;;;5034169;28;20997;-63
2021/04/20 03:42:55;;;;;;;14.87;13.40;;;;;;;;;;5049630;28;20468;-63
2021/04/20 03:45:22;;;;;;;14.77;13.23;;;;;;;;;;5034007;28;20487;-63
2021/04/20 03:47:52;;;;;;;16.43;14.73;;;;;;;;;;5051111;28;20447;-64
2021/04/20 03:50:20;;;;;;;13.67;12.23;;;;;;;;;;5051423;28;20448;-63
2021/04/20 03:52:48;;;;;;;14.67;13.40;;;;;;;;;;5047668;28;20464;-64
2021/04/20 03:55:16;;;;;;;16.20;13.80;;;;;;;;;;5051206;28;20571;-63
2021/04/20 03:57:45;;;;;;;14.30;12.87;;;;;;;;;;5049888;28;20962;-63
2021/04/20 04:00:14;;;;;;;15.80;13.30;;;;;;;;;;5033293;28;20455;-63
2021/04/20 04:02:42;;;;;;;14.60;13.00;;;;;;;;;;5031952;28;20464;-63
2021/04/20 04:05:11;;;;;;;14.40;12.50;;;;;;;;;;5032738;28;20759;-63
2021/04/20 04:07:38;;;;;;;15.00;13.57;;;;;;;;;;5031793;28;20503;-62
2021/04/20 04:10:06;;;;;;;15.07;13.23;;;;;;;;;;5051025;28;20497;-64
2021/04/20 04:12:35;;;;;;;16.40;14.50;;;;;;;;;;5051169;28;20858;-63
2021/04/20 04:15:02;;;;;;;15.73;14.17;;;;;;;;;;5043430;28;20460;-63
2021/04/20 04:17:30;;;;;;;15.10;13.63;;;;;;;;;;5051291;28;20447;-63
2021/04/20 04:19:57;;;;;;;16.00;14.40;;;;;;;;;;5050223;28;20475;-63
2021/04/20 04:22:25;;;;;;;15.50;14.17;;;;;;;;;;5051473;28;20698;-63
2021/04/20 04:24:52;;;;;;;15.83;14.20;;;;;;;;;;5036257;28;20513;-65
2021/04/20 04:27:21;;;;;;;15.60;14.00;;;;;;;;;;5031121;28;20453;-63
2021/04/20 04:29:49;;;;;;;15.53;14.20;;;;;;;;;;5039658;28;20444;-63
2021/04/20 04:32:17;;;;;;;15.67;14.03;;;;;;;;;;5050807;28;20476;-66
2021/04/20 04:34:45;;;;;;;16.50;13.97;;;;;;;;;;5051191;28;20447;-65
2021/04/20 04:37:12;;;;;;;15.80;14.40;;;;;;;;;;5050405;28;20998;-65
2021/04/20 04:39:41;;;;;;;14.90;13.50;;;;;;;;;;5050367;28;20490;-64
2021/04/20 04:42:08;;;;;;;15.80;14.23;;;;;;;;;;5037481;28;20473;-63
2021/04/20 04:44:34;;;;;;;16.23;14.50;;;;;;;;;;5037570;28;20459;-64
2021/04/20 04:47:01;;;;;;;15.80;14.40;;;;;;;;;;5050424;28;20455;-63
2021/04/20 04:49:28;;;;;;;14.70;13.30;;;;;;;;;;5053647;28;20444;-63
2021/04/20 04:51:56;;;;;;;14.20;12.90;;;;;;;;;;5054163;28;20985;-63
2021/04/20 04:54:22;;;;;;;14.70;13.40;;;;;;;;;;5054475;28;20822;-63
2021/04/20 04:56:51;;;;;;;15.97;14.20;;;;;;;;;;5053968;28;20448;-63
2021/04/20 04:59:19;;;;;;;15.07;13.67;;;;;;;;;;5054540;28;20490;-63
2021/04/20 05:01:47;;;;;;;14.57;13.27;;;;;;;;;;5046013;28;20515;-63
2021/04/20 05:04:14;;;;;;;15.57;12.70;;;;;;;;;;5036343;28;20460;-63
2021/04/20 05:06:44;;;;;;;16.23;13.30;;;;;;;;;;5047504;28;20456;-63
2021/04/20 05:09:12;;;;;;;13.60;12.30;;;;;;;;;;5035849;28;20449;-63
2021/04/20 05:11:40;;;;;;;13.80;12.30;;;;;;;;;;5053683;28;20455;-64
2021/04/20 05:14:07;;;;;;;13.57;12.23;;;;;;;;;;5057592;22;20501;-62
2021/04/20 05:16:34;;;;;;;13.30;11.80;;;;;;;;;;5033283;28;20943;-61
2021/04/20 05:19:02;;;;;;;13.00;11.30;;;;;;;;;;5017314;28;20489;-63
2021/04/20 05:21:29;;;;;;;12.57;11.40;;;;;;;;;;5018166;28;20603;-63
2021/04/20 05:23:55;;;;;;;11.83;10.80;;;;;;;;;;5019936;28;20474;-63
2021/04/20 05:26:26;;;;;;;12.77;11.63;;;;;;;;;;5026463;28;20454;-63
2021/04/20 05:28:53;;;;;;;11.87;10.87;;;;;;;;;;5017168;28;20445;-63
2021/04/20 05:31:19;;;;;;;11.60;10.43;;;;;;;;;;5028391;28;20450;-62
2021/04/20 05:33:46;;;;;;;12.20;11.00;;;;;;;;;;5017596;28;20470;-63
2021/04/20 05:36:12;;;;;;;11.80;10.80;;;;;;;;;;5039997;28;20450;-62
2021/04/20 05:38:39;;;;;;;11.87;10.60;;;;;;;;;;5015281;28;20512;-62
2021/04/20 05:41:07;;;;;;;12.30;10.27;;;;;;;;;;5014152;28;20508;-62
2021/04/20 05:43:34;;;;;;;10.90;9.90;;;;;;;;;;5014656;28;20561;-66
2021/04/20 05:46:01;;;;;;;10.63;9.67;;;;;;;;;;5031634;28;20495;-63
2021/04/20 05:48:27;;;;;;;10.70;3.77;;;;;;;;;;5014105;28;20469;-65
2021/04/20 05:50:54;;;;;;;5.97;3.43;;;;;;;;;;5032935;28;20859;-60
2021/04/20 05:53:21;;;;;;;9.77;4.10;;;;;;;;;;5033536;28;20484;-60
2021/04/20 05:55:47;;;;;;;9.90;4.30;;;;;;;;;;5032877;28;20467;-60
2021/04/20 05:58:14;;;;;;;9.60;4.10;;;;;;;;;;5033112;28;20480;-61
2021/04/20 06:00:42;;;;;;;8.00;4.60;;;;;;;;;;5032608;28;20502;-60
2021/04/20 06:03:08;;;;;;;6.67;3.87;;;;;;;;;;5032998;28;20530;-61
2021/04/20 06:05:35;;;;;;;5.90;3.87;;;;;;;;;;5032443;28;20460;-61
2021/04/20 06:08:03;;;;;;;6.50;3.50;;;;;;;;;;5032835;28;20460;-61
2021/04/20 06:10:31;;;;;;;4.10;3.60;;;;;;;;;;5015614;28;20475;-61
2021/04/20 06:12:57;;;;;;;6.00;3.50;;;;;;;;;;5013269;28;20527;-61
2021/04/20 06:15:25;;;;;;;6.53;3.73;;;;;;;;;;5029519;28;20980;-61
2021/04/20 06:17:52;;;;;;;4.43;3.67;;;;;;;;;;5019443;28;20450;-61
2021/04/20 06:20:19;;;;;;;4.03;3.33;;;;;;;;;;5028542;28;20453;-61
2021/04/20 06:22:47;;;;;;;6.70;3.53;;;;;;;;;;5032654;28;20465;-61
2021/04/20 06:25:15;;;;;;;4.03;3.10;;;;;;;;;;5032714;28;20445;-61
2021/04/20 06:27:41;;;;;;;4.67;3.87;;;;;;;;;;5021983;28;20449;-61
2021/04/20 06:30:09;;;;;;;4.40;3.30;;;;;;;;;;5028544;28;20445;-61
2021/04/20 06:32:36;;;;;;;4.53;3.70;;;;;;;;;;5023120;28;20476;-61
2021/04/20 06:35:04;;;;;;;4.13;2.77;;;;;;;;;;5027158;28;20455;-61
2021/04/20 06:37:31;;;;;;;4.33;3.43;;;;;;;;;;5025462;28;21031;-61
2021/04/20 06:39:57;;;;;;;6.87;3.50;;;;;;;;;;5012750;28;20500;-61
2021/04/20 06:42:25;;;;;;;4.83;3.20;;;;;;;;;;5019740;28;21022;-60
2021/04/20 06:44:55;;;;;;;4.20;2.87;;;;;;;;;;5032458;28;20452;-60
2021/04/20 06:47:25;;;;;;;3.57;2.80;;;;;;;;;;5032039;28;20579;-60
2021/04/20 06:49:53;;;;;;;4.67;3.53;;;;;;;;;;5033063;28;20467;-61
2021/04/20 06:52:24;;;;;;;3.67;3.10;;;;;;;;;;5031584;28;21006;-60
2021/04/20 06:54:52;;;;;;;3.87;2.80;;;;;;;;;;5032944;28;20457;-60
2021/04/20 06:57:22;;;;;;;4.67;3.30;;;;;;;;;;5026191;28;20536;-61
2021/04/20 06:59:55;;;;;;;3.67;2.87;;;;;;;;;;5032624;28;20464;-61
2021/04/20 07:02:25;;;;;;;3.70;3.03;;;;;;;;;;5022814;28;20807;-61
2021/04/20 07:04:52;;;;;;;3.23;2.40;;;;;;;;;;5012635;28;20487;-60
2021/04/20 07:07:38;;;;;;;4.80;3.00;;;;;;;;;;5027697;28;20457;-61
2021/04/20 07:10:06;;;;;;;8.23;3.70;;;;;;;;;;5012227;28;20436;-61
2021/04/20 07:12:34;;;;;;;8.20;3.43;;;;;;;;;;5028962;28;21009;-61
2021/04/20 07:15:02;;;;;;;7.83;3.80;;;;;;;;;;5032761;28;20453;-60
2021/04/20 07:17:35;;;;;;;6.40;3.30;;;;;;;;;;5030715;28;20452;-60
2021/04/20 07:20:15;;;;;;;4.53;3.00;;;;;;;;;;5032658;28;20484;-61
2021/04/20 07:23:06;;;;;;;7.60;3.43;;;;;;;;;;5030829;28;21010;-60
2021/04/20 07:25:47;;;;;;;4.27;3.00;;;;;;;;;;5028770;28;20817;-61
2021/04/20 07:28:17;;;;;;;4.37;3.23;;;;;;;;;;5032080;28;20451;-60
2021/04/20 07:30:45;;;;;;;5.50;2.57;;;;;;;;;;5045862;28;20530;-60
2021/04/20 07:33:17;;;;;;;6.80;3.40;;;;;;;;;;5031835;28;20469;-60
2021/04/20 07:35:48;;;;;;;4.03;3.03;;;;;;;;;;5031560;28;20515;-60
2021/04/20 07:38:19;;;;;;;6.90;2.70;;;;;;;;;;5031276;28;20471;-60
2021/04/20 07:40:54;;;;;;;5.07;2.90;;;;;;;;;;5031523;28;20510;-61
2021/04/20 07:43:24;;;;;;;2.60;2.40;;;;;;;;;;5037469;28;20476;-60
2021/04/20 07:45:53;;;;;;;12.07;4.13;;;;;;;;;;5031056;28;20457;-61
2021/04/20 07:48:23;;;;;;;7.10;4.10;;;;;;;;;;5032149;28;20470;-64
2021/04/20 07:50:55;;;;;;;3.73;3.37;;;;;;;;;;5030519;28;20510;-61
2021/04/20 07:53:23;;;;;;;7.37;3.43;;;;;;;;;;5020249;28;20526;-61
2021/04/20 07:55:55;;;;;;;5.60;3.10;;;;;;;;;;5019316;28;20445;-61
2021/04/20 07:58:23;;;;;;;7.30;2.90;;;;;;;;;;5031590;28;20491;-61
2021/04/20 08:00:55;;;;;;;6.80;3.33;;;;;;;;;;5042688;28;20498;-61
2021/04/20 08:03:24;;;;;;;4.83;2.67;;;;;;;;;;5037544;28;20859;-61
2021/04/20 08:05:55;;;;;;;4.23;3.13;;;;;;;;;;5031547;28;20457;-61
2021/04/20 08:08:23;;;;;;;4.70;3.00;;;;;;;;;;5031139;28;20457;-61
2021/04/20 08:10:53;;;;;;;4.90;3.50;;;;;;;;;;5031599;28;20821;-61
2021/04/20 08:13:25;;;;;;;3.93;2.70;;;;;;;;;;5032233;28;20995;-61
2021/04/20 08:15:54;;;;;;;7.03;3.07;;;;;;;;;;5031361;28;20433;-61
2021/04/20 08:18:24;;;;;;;4.50;2.50;;;;;;;;;;5031334;28;20448;-61
2021/04/20 08:20:52;;;;;;;5.90;2.57;;;;;;;;;;5031069;28;20935;-61
2021/04/20 08:23:20;;;;;;;3.60;2.60;;;;;;;;;;5031744;28;20472;-61
2021/04/20 08:25:51;;;;;;;3.63;2.27;;;;;;;;;;5035016;28;20948;-61
2021/04/20 08:28:21;;;;;;;7.17;2.83;;;;;;;;;;5034840;28;20531;-61
2021/04/20 08:30:49;;;;;;;4.20;2.83;;;;;;;;;;5035001;28;20453;-61
2021/04/20 08:33:18;;;;;;;3.30;2.30;;;;;;;;;;5034559;28;21026;-61
2021/04/20 08:35:45;;;;;;;4.13;3.10;;;;;;;;;;5034905;28;20940;-61
2021/04/20 08:38:33;;;;;;;6.60;2.73;;;;;;;;;;5034775;28;20479;-61
2021/04/20 08:41:05;;;;;;;3.70;2.70;;;;;;;;;;5035164;28;20460;-61
2021/04/20 08:43:45;;;;;;;4.40;2.50;;;;;;;;;;5034556;28;20472;-62
2021/04/20 08:46:16;;;;;;;3.57;2.90;;;;;;;;;;5035069;28;20432;-62
2021/04/20 08:48:49;;;;;;;6.87;3.00;;;;;;;;;;5036498;28;20437;-62
2021/04/20 08:51:26;;;;;;;5.07;2.50;;;;;;;;;;5034591;28;20456;-62
2021/04/20 08:53:59;;;;;;;6.07;2.53;;;;;;;;;;5034884;28;20841;-62
2021/04/20 08:56:29;;;;;;;9.53;2.90;;;;;;;;;;5014383;28;20429;-61
2021/04/20 08:59:14;;;;;;;5.43;2.90;;;;;;;;;;5025146;28;20526;-61
2021/04/20 09:01:50;;;;;;;4.43;2.90;;;;;;;;;;5034669;28;20455;-61
2021/04/20 09:04:39;;;;;;;2.83;2.40;;;;;;;;;;5034277;28;20475;-62
2021/04/20 09:07:15;;;;;;;3.60;2.70;;;;;;;;;;5034603;28;20449;-61
2021/04/20 09:09:43;;;;;;;4.10;2.60;;;;;;;;;;5034764;28;20448;-61
2021/04/20 09:12:13;;;;;;;3.50;2.67;;;;;;;;;;5033862;28;20452;-61
2021/04/20 09:14:42;;;;;;;3.83;2.63;;;;;;;;;;5034376;28;20926;-61
2021/04/20 09:17:10;;;;;;;2.80;2.30;;;;;;;;;;5034046;28;20932;-61
2021/04/20 09:19:37;;;;;;;3.20;2.33;;;;;;;;;;5034581;28;20483;-62
2021/04/20 09:22:11;;;;;;;2.83;2.37;;;;;;;;;;5034026;28;20445;-61
2021/04/20 09:24:41;;;;;;;3.20;2.40;;;;;;;;;;5034535;28;20432;-61
2021/04/20 09:27:11;;;;;;;2.50;2.17;;;;;;;;;;5034578;28;20448;-61
2021/04/20 09:29:41;;;;;;;2.40;2.20;;;;;;;;;;5055210;28;20443;-61
2021/04/20 09:32:14;;;;;;;3.80;2.60;;;;;;;;;;5030964;28;20457;-61
2021/04/20 09:34:42;;;;;;;4.50;2.30;;;;;;;;;;5032719;28;20917;-62
2021/04/20 09:37:10;;;;;;;3.17;2.20;;;;;;;;;;5033560;28;20456;-61
2021/04/20 09:39:38;;;;;;;3.00;2.53;;;;;;;;;;5034209;28;20480;-61
2021/04/20 09:42:05;;;;;;;4.67;2.30;;;;;;;;;;5033625;28;20843;-61
2021/04/20 09:44:41;;;;;;;3.63;2.63;;;;;;;;;;5034042;28;20456;-61
2021/04/20 09:47:24;;;;;;;2.97;2.23;;;;;;;;;;5033576;28;20436;-61
2021/04/20 09:49:57;;;;;;;3.60;2.00;;;;;;;;;;5033754;28;20452;-61
2021/04/20 09:52:26;;;;;;;3.07;2.33;;;;;;;;;;5033579;28;20999;-61
2021/04/20 09:54:54;;;;;;;6.63;2.60;;;;;;;;;;5033967;28;20853;-61
2021/04/20 09:57:22;;;;;;;4.43;2.50;;;;;;;;;;5033382;28;20834;-60
2021/04/20 09:59:53;;;;;;;3.70;2.67;;;;;;;;;;5033532;28;20484;-60
2021/04/20 10:02:37;;;;;;;3.20;2.70;;;;;;;;;;5033654;28;20436;-60
2021/04/20 10:05:09;;;;;;;3.93;2.67;;;;;;;;;;5026504;28;20457;-60
2021/04/20 10:07:56;;;;;;;3.70;2.17;;;;;;;;;;5033476;28;20429;-60
2021/04/20 10:10:30;;;;;;;3.40;3.10;;;;;;;;;;5029886;28;20513;-60
2021/04/20 10:13:01;;;;;;;3.93;2.43;;;;;;;;;;5033109;28;20488;-60
2021/04/20 10:15:30;;;;;;;3.03;2.73;;;;;;;;;;5033325;28;20452;-60
2021/04/20 10:18:00;;;;;;;4.13;2.40;;;;;;;;;;5033460;28;20455;-60
2021/04/20 10:20:34;;;;;;;5.97;2.50;;;;;;;;;;5032812;28;20526;-60
2021/04/20 10:23:05;;;;;;;3.40;2.33;;;;;;;;;;5032981;28;20476;-60
2021/04/20 10:25:35;;;;;;;4.03;2.57;;;;;;;;;;5033398;28;20911;-60
2021/04/20 10:28:06;;;;;;;2.50;2.30;;;;;;;;;;5031928;28;20466;-60
2021/04/20 10:30:34;;;;;;;6.00;2.90;;;;;;;;;;5029460;28;20936;-60
2021/04/20 10:33:01;;;;;;;4.70;2.87;;;;;;;;;;5030758;28;20462;-60
2021/04/20 10:35:29;;;;;;;4.33;2.77;;;;;;;;;;5028988;28;20806;-60
2021/04/20 10:37:57;;;;;;;2.73;2.10;;;;;;;;;;5021608;28;20510;-60
2021/04/20 10:40:25;;;;;;;3.53;2.50;;;;;;;;;;5032674;28;20481;-60
2021/04/20 10:42:52;;;;;;;2.37;2.13;;;;;;;;;;5028322;28;20476;-60
2021/04/20 10:45:24;;;;;;;2.43;2.10;;;;;;;;;;5051384;28;20448;-60
2021/04/20 10:47:52;;;;;;;3.90;2.57;;;;;;;;;;5045758;28;20520;-60
2021/04/20 10:50:21;;;;;;;2.30;1.90;;;;;;;;;;5012709;28;20445;-60
2021/04/20 10:52:52;;;;;;;3.67;2.00;;;;;;;;;;5012875;28;21014;-60
2021/04/20 10:55:19;;;;;;;4.27;2.43;;;;;;;;;;5032030;28;20920;-60
2021/04/20 10:57:46;;;;;;;3.27;2.20;;;;;;;;;;5032567;28;20645;-60
2021/04/20 11:00:14;;;;;;;2.77;2.30;;;;;;;;;;5039222;28;20527;-60
2021/04/20 11:02:43;;;;;;;3.27;2.50;;;;;;;;;;5052026;28;20478;-60
2021/04/20 11:05:10;;;;;;;2.87;2.57;;;;;;;;;;5033591;28;20876;-60
2021/04/20 11:07:41;;;;;;;3.00;2.17;;;;;;;;;;5032512;28;20849;-60
2021/04/20 11:10:10;;;;;;;2.90;2.50;;;;;;;;;;5032400;28;20448;-61
2021/04/20 11:12:41;;;;;;;2.80;2.27;;;;;;;;;;5031745;28;20486;-61
2021/04/20 11:15:08;;;;;;;3.10;2.20;;;;;;;;;;5062230;22;20495;-65
2021/04/20 11:17:45;;;;;;;2.40;2.10;;;;;;;;;;5048725;28;20459;-64
2021/04/20 11:20:14;;;;;;;3.53;2.40;;;;;;;;;;5052171;28;20487;-64
2021/04/20 11:22:43;;;;;;;2.97;2.27;;;;;;;;;;5051966;28;20498;-64
2021/04/20 11:25:22;;;;;;;3.03;2.40;;;;;;;;;;5064563;28;20554;-64
2021/04/20 11:27:53;;;;;;;3.03;2.30;;;;;;;;;;5071799;28;20431;-64
2021/04/20 11:30:21;;;;;;;2.87;2.17;;;;;;;;;;5072148;28;20454;-65
2021/04/20 11:32:49;;;;;;;3.27;2.10;;;;;;;;;;5070903;28;20451;-67
2021/04/20 11:35:18;;;;;;;2.53;2.10;;;;;;;;;;5051444;28;20478;-67
2021/04/20 11:37:46;;;;;;;3.40;2.50;;;;;;;;;;5069543;28;20446;-65
2021/04/20 11:40:16;;;;;;;2.90;2.53;;;;;;;;;;5070111;28;20486;-66
2021/04/20 11:42:44;;;;;;;4.00;2.90;;;;;;;;;;5064656;28;20993;-66
2021/04/20 11:45:13;;;;;;;3.43;3.10;;;;;;;;;;5053799;28;20502;-70
2021/04/20 11:47:49;;;;;;;4.60;3.07;;;;;;;;;;5071450;28;20450;-66
2021/04/20 11:50:17;;;;;;;3.50;2.90;;;;;;;;;;5057230;28;20448;-66
2021/04/20 11:52:44;;;;;;;4.33;3.10;;;;;;;;;;5051518;28;20458;-65
2021/04/20 11:55:12;;;;;;;4.40;2.73;;;;;;;;;;5058097;28;20990;-66
2021/04/20 11:57:40;;;;;;;3.60;2.43;;;;;;;;;;5050618;28;20444;-66
2021/04/20 12:00:07;;;;;;;3.07;2.57;;;;;;;;;;5057298;28;20489;-67
2021/04/20 12:02:34;;;;;;;5.83;2.83;;;;;;;;;;5051150;28;20459;-65
2021/04/20 12:05:02;;;;;;;4.20;3.27;;;;;;;;;;5053343;28;20505;-66
2021/04/20 12:07:29;;;;;;;3.53;2.70;;;;;;;;;;5056030;28;20451;-67
2021/04/20 12:09:56;;;;;;;2.60;2.20;;;;;;;;;;5057196;28;20882;-66
2021/04/20 12:12:27;;;;;;;5.37;3.10;;;;;;;;;;5057539;28;20447;-66
2021/04/20 12:14:55;;;;;;;5.90;2.33;;;;;;;;;;5057184;28;20490;-66
2021/04/20 12:17:28;;;;;;;2.90;2.60;;;;;;;;;;5055056;28;20458;-66
2021/04/20 12:19:56;;;;;;;3.40;2.17;;;;;;;;;;5050998;28;20468;-65
2021/04/20 12:22:24;;;;;;;3.80;2.40;;;;;;;;;;5051463;28;20487;-67
2021/04/20 12:24:51;;;;;;;4.73;2.80;;;;;;;;;;5051715;28;20719;-65
2021/04/20 12:27:23;;;;;;;5.00;2.50;;;;;;;;;;5051261;28;20497;-65
2021/04/20 12:29:50;;;;;;;3.70;2.90;;;;;;;;;;5051235;28;20454;-66
2021/04/20 12:32:18;;;;;;;5.10;2.87;;;;;;;;;;5051025;28;20935;-65
2021/04/20 12:34:44;;;;;;;3.37;2.67;;;;;;;;;;5051351;28;20472;-65
2021/04/20 12:37:12;;;;;;;3.23;2.53;;;;;;;;;;5050979;28;20943;-67
2021/04/20 12:39:39;;;;;;;4.40;2.53;;;;;;;;;;5051368;28;20484;-65
2021/04/20 12:42:09;;;;;;;3.87;2.10;;;;;;;;;;5051656;28;20452;-65
2021/04/20 12:44:38;;;;;;;3.23;2.10;;;;;;;;;;5050907;28;20464;-65
2021/04/20 12:47:06;;;;;;;2.97;2.20;;;;;;;;;;5050767;28;20451;-65
2021/04/20 12:49:34;;;;;;;4.60;2.50;;;;;;;;;;5051228;28;20455;-65
2021/04/20 12:52:05;;;;;;;3.80;2.37;;;;;;;;;;5050989;28;20973;-65
2021/04/20 12:54:36;;;;;;;4.13;2.63;;;;;;;;;;5050957;28;20463;-67
2021/04/20 12:57:04;;;;;;;3.93;2.80;;;;;;;;;;5050707;28;20448;-65
2021/04/20 12:59:31;;;;;;;2.87;1.90;;;;;;;;;;5051180;28;20479;-65
2021/04/20 13:02:00;;;;;;;3.40;2.17;;;;;;;;;;5051049;28;20452;-65
2021/04/20 13:04:29;;;;;;;2.70;2.40;;;;;;;;;;5050892;28;20467;-66
2021/04/20 13:06:58;;;;;;;5.50;2.40;;;;;;;;;;5050660;28;20484;-67
2021/04/20 13:09:25;;;;;;;4.17;2.20;;;;;;;;;;5056379;28;20852;-65
2021/04/20 13:11:53;;;;;;;4.13;2.40;;;;;;;;;;5074674;28;20456;-65
2021/04/20 13:14:21;;;;;;;3.90;2.57;;;;;;;;;;5074009;28;20479;-65
2021/04/20 13:16:51;;;;;;;4.03;3.00;;;;;;;;;;5075034;28;20454;-65
2021/04/20 13:19:18;;;;;;;4.00;2.40;;;;;;;;;;5074499;28;20539;-63
2021/04/20 13:21:48;;;;;;;2.73;2.30;;;;;;;;;;5074328;28;20462;-66
2021/04/20 13:24:16;;;;;;;2.97;2.60;;;;;;;;;;5074538;28;20470;-66
2021/04/20 13:26:46;;;;;;;2.80;2.20;;;;;;;;;;5074230;28;20447;-67
2021/04/20 13:29:13;;;;;;;4.60;2.60;;;;;;;;;;5074137;28;20450;-66
2021/04/20 13:31:40;;;;;;;4.63;2.43;;;;;;;;;;5074110;28;20447;-65
2021/04/20 13:34:08;;;;;;;3.23;2.50;;;;;;;;;;5074035;28;20466;-66
2021/04/20 13:36:36;;;;;;;2.43;2.20;;;;;;;;;;5073683;28;21077;-63
2021/04/20 13:39:05;;;;;;;3.67;2.70;;;;;;;;;;5074225;28;20487;-67
2021/04/20 13:41:34;;;;;;;4.43;2.80;;;;;;;;;;5074130;28;20494;-66
2021/04/20 13:44:01;;;;;;;2.60;2.33;;;;;;;;;;5073534;28;20470;-64
2021/04/20 13:46:29;;;;;;;3.90;2.50;;;;;;;;;;5072864;28;20811;-65
2021/04/20 13:49:02;;;;;;;4.33;2.40;;;;;;;;;;5074007;28;20817;-65
2021/04/20 13:51:30;;;;;;;3.10;2.33;;;;;;;;;;5073862;28;20455;-65
2021/04/20 13:53:57;;;;;;;4.10;2.73;;;;;;;;;;5074170;28;20867;-68
2021/04/20 13:56:25;;;;;;;4.97;2.23;;;;;;;;;;5073770;28;20450;-66
2021/04/20 13:58:54;;;;;;;3.10;2.50;;;;;;;;;;5073576;28;20946;-66
2021/04/20 14:01:22;;;;;;;2.50;2.20;;;;;;;;;;5073777;28;20447;-65
2021/04/20 14:03:51;;;;;;;4.20;2.47;;;;;;;;;;5073821;28;20795;-65
2021/04/20 14:06:19;;;;;;;3.93;2.70;;;;;;;;;;5073450;28;20447;-65
2021/04/20 14:08:55;;;;;;;4.67;2.33;;;;;;;;;;5073337;28;20516;-66
2021/04/20 14:11:23;;;;;;;2.57;2.27;;;;;;;;;;5053514;28;20434;-65
2021/04/20 14:13:51;;;;;;;3.47;2.47;;;;;;;;;;5053177;28;20506;-66
2021/04/20 14:16:20;;;;;;;3.70;2.53;;;;;;;;;;5053366;28;20452;-65
2021/04/20 14:18:52;;;;;;;2.47;2.07;;;;;;;;;;5053246;28;20947;-65
2021/04/20 14:21:20;;;;;;;2.93;2.63;;;;;;;;;;5052537;28;20432;-65
2021/04/20 14:23:48;;;;;;;4.60;2.60;;;;;;;;;;5053357;28;20448;-66
2021/04/20 14:26:15;;;;;;;3.53;2.37;;;;;;;;;;5053468;28;20451;-66
2021/04/20 14:28:44;;;;;;;3.63;2.63;;;;;;;;;;5053356;28;20451;-68
2021/04/20 14:31:11;;;;;;;3.00;2.27;;;;;;;;;;5054259;28;20443;-65
2021/04/20 14:33:41;;;;;;;5.20;3.20;;;;;;;;;;5052585;28;20450;-65
2021/04/20 14:36:10;;;;;;;6.00;2.80;;;;;;;;;;5052943;28;20447;-65
2021/04/20 14:38:38;;;;;;;2.83;2.53;;;;;;;;;;5053482;28;20448;-66
2021/04/20 14:41:05;;;;;;;3.37;2.77;;;;;;;;;;5052538;28;21018;-65
2021/04/20 14:43:32;;;;;;;3.37;3.03;;;;;;;;;;5052994;28;20449;-66